createdAt,value
2018-08-18T00:00:26.767Z,12.80
2018-08-18T00:02:55.823Z,12.80
2018-08-18T00:05:25.049Z,13.53
2018-08-18T00:07:54.317Z,12.17
2018-08-18T00:10:23.665Z,12.27
2018-08-18T00:12:52.862Z,12.60
2018-08-18T00:15:22.061Z,12.67
2018-08-18T00:17:51.543Z,13.53
2018-08-18T00:20:23.698Z,16.13
2018-08-18T00:22:53.000Z,13.67
2018-08-18T00:25:22.150Z,13.67
2018-08-18T00:27:51.393Z,13.47
2018-08-18T00:30:25.611Z,14.60
2018-08-18T00:32:55.523Z,13.50
2018-08-18T00:35:24.748Z,13.10
2018-08-18T00:37:53.931Z,13.97
2018-08-18T00:40:23.115Z,14.03
2018-08-18T00:42:52.641Z,13.23
2018-08-18T00:45:21.853Z,13.20
2018-08-18T00:47:51.663Z,13.50
2018-08-18T00:50:35.856Z,13.50
2018-08-18T00:53:05.860Z,14.87
2018-08-18T00:55:35.611Z,14.60
2018-08-18T00:58:05.395Z,14.87
2018-08-18T01:00:35.203Z,19.20
2018-08-18T01:03:04.528Z,41.63
2018-08-18T01:05:34.476Z,22.60
2018-08-18T01:08:03.727Z,31.60
2018-08-18T01:10:32.896Z,27.20
2018-08-18T01:13:02.310Z,24.83
2018-08-18T01:15:31.622Z,32.17
2018-08-18T01:18:01.008Z,26.63
2018-08-18T01:20:30.303Z,21.27
2018-08-18T01:23:00.228Z,20.20
2018-08-18T01:25:29.305Z,19.53
2018-08-18T01:27:59.420Z,20.93
2018-08-18T01:30:28.611Z,18.67
2018-08-18T01:32:57.603Z,19.03
2018-08-18T01:35:26.883Z,16.77
2018-08-18T01:37:56.106Z,15.73
2018-08-18T01:40:25.571Z,13.77
2018-08-18T01:42:54.971Z,15.97
2018-08-18T01:45:24.444Z,15.27
2018-08-18T01:47:53.929Z,14.07
2018-08-18T01:50:23.505Z,16.03
2018-08-18T01:52:52.960Z,13.77
2018-08-18T01:55:22.432Z,13.67
2018-08-18T01:57:51.608Z,16.53
2018-08-18T02:00:23.893Z,19.63
2018-08-18T02:02:53.131Z,21.60
2018-08-18T02:05:22.235Z,16.23
2018-08-18T02:07:51.345Z,17.47
2018-08-18T02:10:20.703Z,16.57
2018-08-18T02:13:00.750Z,14.17
2018-08-18T02:15:30.029Z,13.23
2018-08-18T02:17:59.165Z,11.90
2018-08-18T02:20:28.571Z,13.80
2018-08-18T02:22:58.007Z,13.93
2018-08-18T02:25:27.160Z,12.90
2018-08-18T02:27:56.642Z,13.27
2018-08-18T02:30:25.890Z,13.73
2018-08-18T02:32:54.920Z,13.93
2018-08-18T02:35:24.127Z,13.73
2018-08-18T02:37:53.374Z,15.83
2018-08-18T02:40:22.602Z,12.83
2018-08-18T02:42:52.070Z,13.37
2018-08-18T02:45:21.303Z,11.97
2018-08-18T02:48:04.116Z,14.07
2018-08-18T02:50:33.389Z,14.77
2018-08-18T02:53:07.746Z,12.23
2018-08-18T02:55:37.236Z,13.73
2018-08-18T02:58:06.575Z,11.63
2018-08-18T03:00:36.024Z,12.20
2018-08-18T03:03:05.351Z,14.73
2018-08-18T03:05:34.447Z,18.87
2018-08-18T03:08:03.695Z,13.47
2018-08-18T03:10:33.132Z,13.00
2018-08-18T03:13:02.332Z,13.03
2018-08-18T03:16:06.100Z,12.80
2018-08-18T03:18:46.644Z,13.10
2018-08-18T03:21:16.010Z,12.40
2018-08-18T03:23:56.590Z,11.73
2018-08-18T03:26:31.496Z,12.33
2018-08-18T03:29:01.402Z,11.83
2018-08-18T03:31:30.571Z,15.87
2018-08-18T03:33:59.829Z,11.53
2018-08-18T03:36:30.003Z,17.43
2018-08-18T03:38:59.429Z,12.47
2018-08-18T03:41:29.361Z,11.77
2018-08-18T03:43:58.556Z,11.67
2018-08-18T03:46:27.722Z,14.07
2018-08-18T03:48:57.146Z,10.47
2018-08-18T03:51:31.691Z,11.40
2018-08-18T03:54:01.432Z,12.63
2018-08-18T03:56:30.552Z,13.70
2018-08-18T03:58:59.983Z,11.00
2018-08-18T04:01:40.299Z,12.33
2018-08-18T04:04:10.563Z,11.13
2018-08-18T04:06:41.671Z,14.03
2018-08-18T04:09:15.004Z,11.07
2018-08-18T04:11:44.283Z,15.63
2018-08-18T04:14:13.973Z,13.17
2018-08-18T04:16:45.440Z,14.17
2018-08-18T04:19:16.948Z,13.57
2018-08-18T04:21:46.533Z,16.27
2018-08-18T04:24:16.401Z,14.67
2018-08-18T04:26:48.215Z,16.20
2018-08-18T04:29:17.900Z,14.10
2018-08-18T04:31:47.450Z,13.23
2018-08-18T04:34:16.616Z,14.40
2018-08-18T04:36:45.827Z,13.53
2018-08-18T04:39:15.047Z,14.07
2018-08-18T04:41:44.100Z,12.43
2018-08-18T04:44:13.388Z,14.93
2018-08-18T04:46:42.463Z,12.43
2018-08-18T04:49:11.970Z,14.73
2018-08-18T04:51:41.417Z,15.40
2018-08-18T04:54:10.568Z,15.43
2018-08-18T04:56:39.841Z,13.33
2018-08-18T04:59:09.001Z,16.63
2018-08-18T05:01:39.304Z,16.10
2018-08-18T05:04:09.776Z,15.03
2018-08-18T05:06:39.694Z,14.77
2018-08-18T05:09:09.728Z,15.37
2018-08-18T05:11:38.844Z,14.83
2018-08-18T05:14:08.087Z,16.63
2018-08-18T05:16:37.366Z,14.97
2018-08-18T05:19:06.588Z,15.17
2018-08-18T05:21:35.750Z,17.63
2018-08-18T05:24:21.416Z,21.67
2018-08-18T05:26:51.962Z,15.97
2018-08-18T05:29:21.223Z,14.00
2018-08-18T05:31:50.339Z,17.50
2018-08-18T05:34:19.583Z,16.50
2018-08-18T05:36:49.068Z,15.40
2018-08-18T05:39:18.779Z,14.80
2018-08-18T05:41:48.324Z,14.97
2018-08-18T05:44:17.824Z,13.10
2018-08-18T05:46:46.963Z,15.30
2018-08-18T05:49:32.745Z,13.93
2018-08-18T05:52:01.320Z,14.57
2018-08-18T05:54:30.174Z,16.70
2018-08-18T05:56:58.701Z,13.30
2018-08-18T05:59:27.219Z,12.17
2018-08-18T06:01:55.765Z,11.23
2018-08-18T06:04:24.670Z,11.90
2018-08-18T06:06:53.945Z,10.77
2018-08-18T06:09:23.888Z,12.60
2018-08-18T06:11:52.561Z,10.53
2018-08-18T06:14:21.193Z,10.53
2018-08-18T06:16:50.048Z,11.80
2018-08-18T06:19:19.056Z,17.77
2018-08-18T06:21:47.548Z,13.10
2018-08-18T06:24:16.548Z,15.47
2018-08-18T06:26:45.748Z,13.37
2018-08-18T06:29:15.113Z,12.13
2018-08-18T06:31:58.345Z,12.43
2018-08-18T06:34:29.110Z,12.53
2018-08-18T06:36:58.186Z,12.13
2018-08-18T06:39:28.048Z,12.03
2018-08-18T06:41:56.882Z,11.07
2018-08-18T06:44:27.709Z,11.17
2018-08-18T06:46:56.265Z,12.43
2018-08-18T06:49:24.956Z,11.00
2018-08-18T06:51:53.794Z,10.37
2018-08-18T06:54:22.778Z,9.70
2018-08-18T06:56:51.364Z,9.67
2018-08-18T06:59:20.323Z,10.03
2018-08-18T07:01:49.241Z,8.28
2018-08-18T07:04:24.993Z,10.77
2018-08-18T07:06:53.799Z,8.58
2018-08-18T07:09:23.392Z,9.00
2018-08-18T07:11:52.040Z,8.83
2018-08-18T07:14:20.715Z,8.48
2018-08-18T07:16:49.218Z,13.75
2018-08-18T07:19:18.535Z,15.93
2018-08-18T07:21:47.102Z,36.60
2018-08-18T07:24:16.521Z,40.10
2018-08-18T07:26:45.321Z,8.13
2018-08-18T07:29:14.141Z,8.08
2018-08-18T07:31:42.674Z,9.20
2018-08-18T07:34:11.800Z,12.18
2018-08-18T07:36:40.412Z,8.38
2018-08-18T07:39:09.447Z,9.30
2018-08-18T07:41:37.998Z,11.08
2018-08-18T07:44:06.484Z,9.20
2018-08-18T07:46:35.561Z,20.40
2018-08-18T07:49:04.935Z,8.78
2018-08-18T07:51:33.899Z,25.15
2018-08-18T07:54:02.764Z,17.15
2018-08-18T07:56:31.337Z,19.17
2018-08-18T07:58:59.856Z,16.52
2018-08-18T08:01:28.892Z,7.12
2018-08-18T08:03:57.437Z,5.78
2018-08-18T08:06:26.207Z,6.05
2018-08-18T08:08:55.049Z,8.83
2018-08-18T08:11:24.747Z,12.00
2018-08-18T08:13:53.652Z,9.15
2018-08-18T08:16:22.552Z,7.05
2018-08-18T08:18:51.220Z,7.08
2018-08-18T08:21:20.078Z,5.80
2018-08-18T08:23:48.630Z,10.25
2018-08-18T08:26:17.174Z,20.27
2018-08-18T08:28:46.447Z,23.80
2018-08-18T08:31:15.484Z,6.67
2018-08-18T08:33:44.233Z,8.58
2018-08-18T08:36:16.566Z,9.80
2018-08-18T08:38:58.402Z,6.70
2018-08-18T08:41:29.079Z,8.78
2018-08-18T08:43:57.750Z,12.90
2018-08-18T08:46:26.750Z,6.22
2018-08-18T08:48:58.456Z,6.87
2018-08-18T08:51:27.267Z,9.10
2018-08-18T08:53:57.923Z,6.22
2018-08-18T08:56:32.242Z,6.00
2018-08-18T08:59:01.411Z,8.83
2018-08-18T09:01:30.199Z,9.23
2018-08-18T09:03:58.740Z,8.70
2018-08-18T09:06:28.511Z,9.13
2018-08-18T09:08:58.944Z,8.98
2018-08-18T09:11:28.683Z,7.25
2018-08-18T09:14:03.988Z,6.83
2018-08-18T09:16:33.461Z,6.62
2018-08-18T09:19:02.913Z,7.33
2018-08-18T09:21:38.929Z,6.03
2018-08-18T09:24:07.914Z,7.42
2018-08-18T09:26:41.716Z,5.30
2018-08-18T09:29:11.133Z,6.10
2018-08-18T09:31:40.772Z,6.58
2018-08-18T09:34:10.839Z,5.70
2018-08-18T09:36:40.361Z,7.67
2018-08-18T09:39:16.316Z,6.42
2018-08-18T09:41:46.530Z,8.18
2018-08-18T09:44:21.695Z,6.55
2018-08-18T09:46:51.483Z,6.72
2018-08-18T09:49:20.580Z,5.70
2018-08-18T09:51:50.059Z,10.53
2018-08-18T09:54:19.595Z,7.47
2018-08-18T09:56:48.751Z,7.90
2018-08-18T09:59:17.903Z,5.58
2018-08-18T10:01:47.025Z,7.97
2018-08-18T10:04:16.296Z,5.12
2018-08-18T10:06:45.832Z,5.72
2018-08-18T10:09:15.448Z,7.55
2018-08-18T10:11:44.964Z,8.28
2018-08-18T10:14:14.452Z,8.48
2018-08-18T10:16:43.857Z,7.08
2018-08-18T10:19:12.965Z,7.12
2018-08-18T10:21:42.195Z,6.35
2018-08-18T10:24:11.635Z,8.33
2018-08-18T10:26:41.221Z,16.82
2018-08-18T10:29:16.416Z,7.78
2018-08-18T10:31:50.288Z,11.60
2018-08-18T10:34:20.555Z,8.93
2018-08-18T10:36:56.437Z,10.28
2018-08-18T10:39:25.861Z,6.28
2018-08-18T10:42:04.841Z,10.08
2018-08-18T10:44:34.704Z,12.35
2018-08-18T10:47:13.571Z,8.28
2018-08-18T10:49:53.772Z,9.38
2018-08-18T10:52:34.707Z,9.95
2018-08-18T10:55:06.456Z,9.80
2018-08-18T10:57:47.435Z,7.35
2018-08-18T11:00:18.140Z,12.10
2018-08-18T11:02:49.560Z,10.15
2018-08-18T11:05:19.255Z,8.38
2018-08-18T11:07:54.374Z,9.35
2018-08-18T11:10:24.971Z,9.65
2018-08-18T11:12:54.615Z,11.65
2018-08-18T11:15:24.084Z,8.23
2018-08-18T11:17:53.365Z,11.55
2018-08-18T11:20:23.926Z,11.10
2018-08-18T11:23:00.114Z,8.95
2018-08-18T11:25:31.958Z,9.33
2018-08-18T11:28:01.334Z,5.33
2018-08-18T11:30:30.822Z,9.03
2018-08-18T11:33:00.997Z,6.15
2018-08-18T11:35:30.639Z,6.05
2018-08-18T11:38:06.010Z,8.90
2018-08-18T11:40:35.052Z,11.05
2018-08-18T11:43:05.309Z,6.72
2018-08-18T11:45:35.631Z,6.17
2018-08-18T11:48:09.841Z,6.75
2018-08-18T11:50:39.385Z,4.95
2018-08-18T11:53:08.640Z,4.25
2018-08-18T11:55:44.847Z,4.60
2018-08-18T11:58:17.080Z,5.20
2018-08-18T12:00:50.748Z,8.88
2018-08-18T12:03:22.628Z,5.00
2018-08-18T12:05:54.887Z,5.67
2018-08-18T12:08:25.611Z,7.00
2018-08-18T12:10:56.472Z,10.20
2018-08-18T12:13:31.069Z,7.28
2018-08-18T12:16:09.600Z,7.83
2018-08-18T12:18:40.678Z,7.35
2018-08-18T12:21:10.231Z,7.08
2018-08-18T12:23:40.636Z,6.45
2018-08-18T12:26:13.281Z,8.38
2018-08-18T12:28:48.499Z,7.17
2018-08-18T12:31:22.155Z,6.35
2018-08-18T12:33:51.545Z,6.25
2018-08-18T12:36:21.280Z,6.65
2018-08-18T12:38:54.278Z,7.92
2018-08-18T12:41:23.317Z,6.80
2018-08-18T12:43:54.608Z,6.53
2018-08-18T12:46:28.996Z,6.28
2018-08-18T12:48:58.252Z,7.83
2018-08-18T12:51:27.459Z,6.45
2018-08-18T12:53:57.580Z,6.75
2018-08-18T12:56:28.340Z,8.58
2018-08-18T12:58:57.962Z,7.28
2018-08-18T13:01:38.897Z,5.30
2018-08-18T13:04:10.296Z,8.03
2018-08-18T13:06:43.402Z,11.28
2018-08-18T13:09:14.013Z,7.78
2018-08-18T13:11:44.308Z,7.55
2018-08-18T13:14:16.972Z,6.97
2018-08-18T13:16:46.099Z,14.25
2018-08-18T13:19:17.009Z,49.48
2018-08-18T13:21:46.548Z,58.45
2018-08-18T13:24:16.138Z,52.43
2018-08-18T13:26:45.278Z,34.13
2018-08-18T13:29:14.486Z,21.95
2018-08-18T13:31:44.383Z,25.82
2018-08-18T13:34:14.705Z,15.10
2018-08-18T13:36:44.566Z,22.15
2018-08-18T13:39:15.176Z,17.55
2018-08-18T13:41:45.077Z,16.85
2018-08-18T13:44:23.778Z,25.00
2018-08-18T13:46:56.656Z,17.02
2018-08-18T13:49:26.763Z,12.20
2018-08-18T13:51:56.595Z,7.45
2018-08-18T13:54:28.318Z,8.78
2018-08-18T13:57:01.371Z,12.58
2018-08-18T13:59:48.904Z,14.87
2018-08-18T14:02:18.105Z,16.32
2018-08-18T14:04:47.783Z,10.18
2018-08-18T14:07:17.271Z,16.67
2018-08-18T14:09:51.778Z,13.48
2018-08-18T14:12:21.400Z,15.28
2018-08-18T14:14:53.498Z,18.40
2018-08-18T14:17:22.891Z,14.85
2018-08-18T14:19:57.322Z,12.80
2018-08-18T14:22:26.618Z,12.70
2018-08-18T14:24:57.916Z,11.05
2018-08-18T14:27:30.712Z,10.10
2018-08-18T14:30:02.109Z,10.20
2018-08-18T14:32:34.848Z,14.58
2018-08-18T14:35:07.542Z,9.90
2018-08-18T14:37:41.300Z,7.33
2018-08-18T14:40:16.001Z,9.63
2018-08-18T14:42:53.896Z,10.65
2018-08-18T14:45:27.212Z,9.90
2018-08-18T14:48:00.486Z,9.95
2018-08-18T14:50:33.731Z,6.72
2018-08-18T14:53:13.153Z,8.85
2018-08-18T14:55:42.406Z,14.65
2018-08-18T14:58:11.559Z,8.10
2018-08-18T15:00:40.963Z,58.80
2018-08-18T15:03:10.275Z,16.07
2018-08-18T15:05:39.399Z,23.95
2018-08-18T15:08:08.479Z,10.90
2018-08-18T15:10:42.243Z,15.30
2018-08-18T15:13:12.269Z,7.28
2018-08-18T15:15:41.994Z,7.33
2018-08-18T15:18:12.446Z,9.53
2018-08-18T15:20:42.512Z,6.92
2018-08-18T15:23:12.311Z,8.25
2018-08-18T15:25:42.595Z,9.08
2018-08-18T15:28:14.118Z,13.85
2018-08-18T15:30:46.720Z,10.58
2018-08-18T15:33:16.708Z,10.53
2018-08-18T15:35:46.384Z,8.68
2018-08-18T15:38:15.852Z,11.05
2018-08-18T15:40:49.996Z,8.53
2018-08-18T15:43:19.456Z,9.40
2018-08-18T15:46:04.420Z,9.53
2018-08-18T15:48:33.616Z,8.20
2018-08-18T15:51:02.845Z,9.78
2018-08-18T15:54:03.638Z,7.05
2018-08-18T15:56:35.088Z,7.22
2018-08-18T15:59:04.567Z,7.30
2018-08-18T16:01:34.928Z,7.20
2018-08-18T16:04:04.938Z,8.80
2018-08-18T16:06:34.291Z,7.17
2018-08-18T16:09:04.032Z,10.45
2018-08-18T16:11:34.148Z,13.98
2018-08-18T16:14:03.520Z,16.65
2018-08-18T16:16:32.970Z,9.08
2018-08-18T16:19:07.588Z,12.95
2018-08-18T16:21:37.332Z,9.28
2018-08-18T16:24:07.530Z,10.78
2018-08-18T16:26:37.458Z,10.82
2018-08-18T16:29:06.679Z,8.65
2018-08-18T16:31:35.985Z,10.78
2018-08-18T16:34:05.359Z,10.95
2018-08-18T16:36:39.883Z,13.88
2018-08-18T16:39:09.685Z,9.68
2018-08-18T16:41:39.043Z,9.63
2018-08-18T16:44:08.207Z,13.65
2018-08-18T16:46:37.690Z,11.83
2018-08-18T16:49:06.929Z,13.98
2018-08-18T16:51:37.489Z,13.98
2018-08-18T16:54:18.518Z,14.18
2018-08-18T16:56:50.371Z,11.57
2018-08-18T16:59:19.982Z,11.78
2018-08-18T17:01:49.627Z,13.03
2018-08-18T17:04:24.812Z,11.12
2018-08-18T17:06:54.477Z,12.65
2018-08-18T17:09:35.465Z,13.83
2018-08-18T17:12:17.959Z,11.80
2018-08-18T17:14:47.722Z,13.20
2018-08-18T17:17:17.085Z,14.53
2018-08-18T17:19:46.304Z,15.95
2018-08-18T17:22:16.255Z,15.65
2018-08-18T17:24:45.830Z,13.40
2018-08-18T17:27:15.036Z,17.87
2018-08-18T17:29:46.355Z,19.50
2018-08-18T17:32:15.627Z,16.82
2018-08-18T17:34:44.761Z,16.17
2018-08-18T17:37:14.239Z,16.77
2018-08-18T17:39:43.709Z,17.60
2018-08-18T17:42:12.705Z,16.95
2018-08-18T17:44:42.039Z,17.77
2018-08-18T17:47:11.793Z,25.72
2018-08-18T17:49:46.896Z,20.45
2018-08-18T17:52:16.548Z,23.77
2018-08-18T17:54:59.429Z,25.65
2018-08-18T17:57:28.645Z,30.68
2018-08-18T17:59:57.909Z,24.50
2018-08-18T18:02:27.293Z,23.22
2018-08-18T18:05:00.601Z,26.05
2018-08-18T18:07:29.844Z,26.57
2018-08-18T18:09:59.119Z,27.67
2018-08-18T18:12:31.859Z,29.55
2018-08-18T18:15:01.268Z,23.55
2018-08-18T18:17:30.693Z,22.98
2018-08-18T18:20:00.688Z,27.20
2018-08-18T18:22:36.817Z,30.25
2018-08-18T18:25:06.429Z,25.50
2018-08-18T18:27:35.716Z,21.75
2018-08-18T18:30:05.320Z,23.03
2018-08-18T18:32:34.847Z,23.45
2018-08-18T18:35:04.207Z,21.12
2018-08-18T18:37:33.373Z,22.48
2018-08-18T18:40:06.276Z,20.57
2018-08-18T18:42:37.158Z,20.77
2018-08-18T18:45:08.485Z,22.62
2018-08-18T18:47:38.405Z,24.63
2018-08-18T18:50:08.173Z,28.50
2018-08-18T18:52:37.522Z,28.10
2018-08-18T18:55:07.115Z,26.67
2018-08-18T18:57:36.468Z,24.30
2018-08-18T19:00:09.035Z,19.50
2018-08-18T19:02:43.978Z,21.67
2018-08-18T19:05:22.343Z,27.17
2018-08-18T19:08:06.866Z,28.87
2018-08-18T19:10:36.189Z,49.03
2018-08-18T19:13:05.243Z,29.83
2018-08-18T19:15:34.774Z,38.90
2018-08-18T19:18:04.326Z,32.17
2018-08-18T19:20:33.448Z,28.00
2018-08-18T19:23:08.734Z,25.03
2018-08-18T19:25:39.026Z,26.77
2018-08-18T19:28:12.949Z,25.60
2018-08-18T19:30:42.354Z,24.73
2018-08-18T19:33:12.650Z,26.83
2018-08-18T19:35:44.793Z,26.60
2018-08-18T19:38:14.785Z,26.37
2018-08-18T19:40:45.461Z,24.93
2018-08-18T19:43:18.020Z,25.73
2018-08-18T19:45:47.851Z,26.60
2018-08-18T19:48:19.216Z,30.87
2018-08-18T19:50:54.557Z,30.13
2018-08-18T19:53:24.774Z,48.97
2018-08-18T19:55:54.808Z,35.50
2018-08-18T19:58:24.889Z,42.60
2018-08-18T20:00:54.651Z,35.07
2018-08-18T20:03:24.498Z,31.50
2018-08-18T20:05:54.046Z,29.73
2018-08-18T20:08:25.508Z,28.30
2018-08-18T20:11:01.738Z,25.37
2018-08-18T20:13:32.322Z,24.33
2018-08-18T20:16:03.251Z,25.30
2018-08-18T20:18:36.386Z,24.63
2018-08-18T20:21:06.303Z,27.83
2018-08-18T20:23:37.309Z,22.90
2018-08-18T20:26:08.379Z,33.60
2018-08-18T20:28:37.588Z,31.93
2018-08-18T20:31:07.022Z,71.57
2018-08-18T20:33:36.971Z,55.90
2018-08-18T20:36:06.422Z,30.13
2018-08-18T20:38:41.965Z,31.27
2018-08-18T20:41:11.848Z,38.73
2018-08-18T20:43:42.978Z,36.90
2018-08-18T20:46:12.208Z,31.83
2018-08-18T20:48:41.561Z,27.53
2018-08-18T20:51:10.941Z,27.50
2018-08-18T20:53:40.323Z,27.30
2018-08-18T20:56:09.815Z,28.43
2018-08-18T20:58:39.326Z,31.90
2018-08-18T21:01:08.745Z,27.13
2018-08-18T21:03:48.376Z,25.70
2018-08-18T21:06:18.805Z,26.77
2018-08-18T21:08:47.926Z,29.67
2018-08-18T21:11:17.657Z,29.07
2018-08-18T21:13:49.550Z,32.87
2018-08-18T21:16:19.561Z,31.90
2018-08-18T21:18:48.649Z,34.27
2018-08-18T21:21:34.768Z,31.37
2018-08-18T21:24:04.140Z,29.40
2018-08-18T21:26:33.528Z,27.77
2018-08-18T21:29:03.136Z,27.87
2018-08-18T21:31:34.162Z,27.17
2018-08-18T21:34:04.474Z,82.47
2018-08-18T21:36:33.945Z,46.97
2018-08-18T21:39:07.444Z,42.10
2018-08-18T21:41:38.376Z,37.40
2018-08-18T21:44:09.347Z,33.50
2018-08-18T21:46:39.003Z,32.03
2018-08-18T21:49:08.396Z,32.47
2018-08-18T21:51:37.808Z,30.07
2018-08-18T21:54:08.024Z,28.63
2018-08-18T21:56:39.528Z,29.17
2018-08-18T21:59:10.033Z,27.03
2018-08-18T22:01:39.320Z,27.03
2018-08-18T22:04:09.187Z,28.63
2018-08-18T22:06:38.336Z,27.23
2018-08-18T22:09:20.999Z,28.00
2018-08-18T22:11:50.239Z,34.07
2018-08-18T22:14:19.673Z,32.00
2018-08-18T22:16:54.043Z,29.07
2018-08-18T22:19:23.096Z,29.87
2018-08-18T22:21:52.271Z,29.53
2018-08-18T22:24:21.500Z,28.10
2018-08-18T22:26:50.727Z,27.57
2018-08-18T22:29:23.579Z,26.60
2018-08-18T22:31:53.637Z,29.83
2018-08-18T22:34:22.733Z,30.30
2018-08-18T22:36:55.422Z,28.40
2018-08-18T22:39:24.716Z,28.87
2018-08-18T22:41:54.044Z,30.23
2018-08-18T22:44:23.401Z,35.53
2018-08-18T22:46:52.480Z,32.20
2018-08-18T22:49:21.749Z,35.17
2018-08-18T22:51:51.031Z,28.67
2018-08-18T22:54:20.526Z,29.73
2018-08-18T22:56:55.124Z,42.70
2018-08-18T22:59:24.664Z,52.40
2018-08-18T23:01:53.923Z,49.13
2018-08-18T23:04:30.069Z,34.23
2018-08-18T23:07:00.279Z,32.33
2018-08-18T23:09:30.299Z,33.97
2018-08-18T23:12:02.635Z,32.93
2018-08-18T23:14:33.808Z,33.70
2018-08-18T23:17:03.308Z,48.47
2018-08-18T23:19:33.215Z,42.53
2018-08-18T23:22:02.913Z,42.47
2018-08-18T23:24:34.428Z,33.20
2018-08-18T23:27:04.139Z,28.50
2018-08-18T23:29:33.493Z,29.80
2018-08-18T23:32:12.976Z,30.77
2018-08-18T23:34:42.152Z,27.63
2018-08-18T23:37:15.284Z,32.57
2018-08-18T23:39:44.569Z,31.67
2018-08-18T23:42:15.646Z,29.40
2018-08-18T23:44:44.907Z,29.70
2018-08-18T23:47:14.124Z,29.50
2018-08-18T23:49:43.618Z,28.70
2018-08-18T23:52:13.408Z,42.37
2018-08-18T23:54:42.646Z,27.90
2018-08-18T23:57:12.495Z,28.63
2018-08-18T23:59:41.479Z,26.77
